Time;durP1;ratioP1;P1;durP2;ratioP2;P2;SDS_P1;SDS_P2;PMS_P1;PMS_P2;Temp;Humidity;BMP_temperature;BMP_pressure;BME280_temperature;BME280_humidity;BME280_pressure;Samples;Min_cycle;Max_cycle;Signal;HPM_P1;HPM_P2
2023/07/18 00:00:36;;;;;;;5.10;2.22;;;13.60;99.90;;;;;;5011525;28;20030;-55
2023/07/18 00:03:03;;;;;;;5.95;2.70;;;13.60;99.90;;;;;;5010738;28;20040;-58
2023/07/18 00:05:29;;;;;;;5.18;2.50;;;13.60;99.90;;;;;;5011407;28;20378;-59
2023/07/18 00:07:55;;;;;;;5.72;2.15;;;13.60;99.90;;;;;;5011330;28;20529;-59
2023/07/18 00:10:22;;;;;;;4.70;2.38;;;13.60;99.90;;;;;;5011364;28;20026;-59
2023/07/18 00:12:48;;;;;;;4.80;2.13;;;13.50;99.90;;;;;;5010819;28;20029;-58
2023/07/18 00:15:14;;;;;;;5.03;1.85;;;13.50;99.90;;;;;;5011114;28;20041;-58
2023/07/18 00:17:41;;;;;;;6.28;2.13;;;13.50;99.90;;;;;;5011178;28;20049;-57
2023/07/18 00:20:09;;;;;;;5.05;2.40;;;13.50;99.90;;;;;;5011072;28;20036;-59
2023/07/18 00:22:36;;;;;;;6.03;2.53;;;13.50;99.90;;;;;;5011514;28;20048;-59
2023/07/18 00:25:02;;;;;;;4.97;2.40;;;13.60;99.90;;;;;;5011351;28;20025;-59
2023/07/18 00:27:28;;;;;;;4.88;2.15;;;13.70;99.90;;;;;;5011051;28;20058;-57
2023/07/18 00:29:55;;;;;;;3.70;1.90;;;13.90;99.90;;;;;;5011134;28;20486;-58
2023/07/18 00:32:22;;;;;;;8.68;2.80;;;14.00;99.90;;;;;;4993317;28;20409;-53
2023/07/18 00:34:49;;;;;;;6.68;2.53;;;14.10;99.90;;;;;;4993389;28;20482;-59
2023/07/18 00:37:15;;;;;;;5.18;2.25;;;14.10;99.90;;;;;;4993144;28;20068;-56
2023/07/18 00:39:42;;;;;;;5.88;2.47;;;14.10;99.90;;;;;;4993422;28;20040;-58
2023/07/18 00:42:08;;;;;;;4.63;2.40;;;14.20;99.90;;;;;;4993170;28;20026;-59
2023/07/18 00:44:33;;;;;;;4.72;1.90;;;14.20;99.90;;;;;;5010976;28;20140;-57
2023/07/18 00:47:00;;;;;;;4.72;1.80;;;14.20;99.90;;;;;;4993202;28;20034;-59
2023/07/18 00:49:25;;;;;;;5.40;2.10;;;14.20;99.90;;;;;;4977251;28;20046;-58
2023/07/18 00:51:51;;;;;;;3.63;1.83;;;14.20;99.90;;;;;;4992975;28;20184;-53
2023/07/18 00:54:17;;;;;;;5.18;2.47;;;14.10;99.90;;;;;;4993132;28;20038;-57
2023/07/18 00:56:44;;;;;;;6.03;2.10;;;14.10;99.90;;;;;;4992923;28;20034;-57
2023/07/18 00:59:13;;;;;;;3.38;1.83;;;14.00;99.90;;;;;;5010844;28;20425;-55
2023/07/18 01:01:39;;;;;;;4.75;1.98;;;13.90;99.90;;;;;;4992971;28;20030;-59
2023/07/18 01:04:05;;;;;;;5.47;2.00;;;13.90;99.90;;;;;;4993088;28;20034;-59
2023/07/18 01:06:32;;;;;;;5.90;1.73;;;13.80;99.90;;;;;;5011002;28;20042;-59
2023/07/18 01:08:58;;;;;;;5.45;2.20;;;13.80;99.90;;;;;;4993122;28;20034;-56
2023/07/18 01:11:23;;;;;;;5.68;1.90;;;13.80;99.90;;;;;;4992971;28;20363;-57
2023/07/18 01:13:49;;;;;;;4.53;1.90;;;13.80;99.90;;;;;;5010664;28;20364;-58
2023/07/18 01:16:15;;;;;;;4.82;1.98;;;13.70;99.90;;;;;;4995882;28;20029;-59
2023/07/18 01:18:41;;;;;;;5.22;2.10;;;13.70;99.90;;;;;;4996855;28;20478;-56
2023/07/18 01:21:11;;;;;;;6.38;1.80;;;13.70;99.90;;;;;;5014456;28;20048;-59
2023/07/18 01:23:37;;;;;;;6.65;2.80;;;13.70;99.90;;;;;;4996629;28;20116;-59
2023/07/18 01:26:02;;;;;;;6.28;2.10;;;13.60;99.90;;;;;;5014194;28;20113;-58
2023/07/18 01:28:29;;;;;;;6.60;2.10;;;13.50;99.90;;;;;;5014427;28;20496;-58
2023/07/18 01:30:55;;;;;;;4.88;2.20;;;13.50;99.90;;;;;;5014453;28;20073;-58
2023/07/18 01:33:21;;;;;;;5.97;1.92;;;13.60;99.90;;;;;;4996522;28;20034;-58
2023/07/18 01:35:47;;;;;;;5.32;1.95;;;13.50;99.90;;;;;;4996271;28;20030;-56
2023/07/18 01:38:13;;;;;;;6.20;2.25;;;13.50;99.90;;;;;;4996948;28;20049;-55
2023/07/18 01:40:39;;;;;;;4.80;2.38;;;13.60;99.90;;;;;;5014507;28;20390;-58
2023/07/18 01:43:04;;;;;;;3.80;1.90;;;13.70;99.90;;;;;;5013903;28;20033;-58
2023/07/18 01:45:30;;;;;;;5.75;2.47;;;13.70;99.90;;;;;;4996454;28;20076;-58
2023/07/18 01:47:59;;;;;;;6.65;2.25;;;13.60;99.90;;;;;;5014121;28;20018;-58
2023/07/18 01:50:25;;;;;;;5.75;2.28;;;13.60;99.90;;;;;;4996271;28;20041;-58
2023/07/18 01:52:50;;;;;;;5.25;2.47;;;13.70;99.90;;;;;;4996042;28;20030;-59
2023/07/18 01:55:19;;;;;;;4.88;2.22;;;13.60;99.90;;;;;;4995938;28;20029;-56
2023/07/18 01:57:49;;;;;;;6.15;2.67;;;13.50;99.90;;;;;;5013932;28;20026;-59
2023/07/18 02:00:20;;;;;;;4.68;2.33;;;13.50;99.90;;;;;;4996229;28;20022;-59
2023/07/18 02:02:48;;;;;;;5.05;2.13;;;13.40;99.90;;;;;;5013435;28;20037;-58
2023/07/18 02:05:16;;;;;;;5.78;2.13;;;13.40;99.90;;;;;;4996199;28;20328;-55
2023/07/18 02:07:42;;;;;;;7.63;2.20;;;13.40;99.90;;;;;;5013782;28;20722;-58
2023/07/18 02:10:07;;;;;;;5.40;1.98;;;13.40;99.90;;;;;;4995975;28;20161;-58
2023/07/18 02:12:33;;;;;;;5.72;2.40;;;13.50;99.90;;;;;;4995696;28;20383;-58
2023/07/18 02:14:59;;;;;;;4.45;2.60;;;13.50;99.90;;;;;;4995727;28;20030;-58
2023/07/18 02:17:24;;;;;;;5.35;2.35;;;13.50;99.90;;;;;;5013414;28;20029;-59
2023/07/18 02:19:50;;;;;;;6.05;2.13;;;13.50;99.90;;;;;;4995581;28;20053;-59
2023/07/18 02:22:19;;;;;;;3.90;2.03;;;13.60;99.90;;;;;;4995647;28;20192;-59
2023/07/18 02:24:45;;;;;;;4.72;2.25;;;13.60;99.90;;;;;;4995816;28;20354;-57
2023/07/18 02:27:10;;;;;;;4.68;2.20;;;13.60;99.90;;;;;;5012769;28;20153;-57
2023/07/18 02:29:36;;;;;;;5.47;2.55;;;13.50;99.90;;;;;;4995623;28;20037;-57
2023/07/18 02:32:01;;;;;;;4.35;2.15;;;13.40;99.90;;;;;;4995467;28;20057;-58
2023/07/18 02:34:27;;;;;;;6.80;2.10;;;13.40;99.90;;;;;;5013085;28;20026;-59
2023/07/18 02:36:53;;;;;;;6.13;2.28;;;13.40;99.90;;;;;;5012870;28;20125;-58
2023/07/18 02:39:20;;;;;;;3.03;1.77;;;13.40;99.90;;;;;;5013234;28;20433;-59
2023/07/18 02:41:47;;;;;;;6.47;2.08;;;13.30;99.90;;;;;;5012883;28;20022;-59
2023/07/18 02:44:13;;;;;;;4.85;2.10;;;13.30;99.90;;;;;;4995427;28;20613;-59
2023/07/18 02:46:38;;;;;;;6.90;2.78;;;13.30;99.90;;;;;;5012743;28;20053;-56
2023/07/18 02:49:04;;;;;;;6.00;2.58;;;13.40;99.90;;;;;;4995354;28;20045;-58
2023/07/18 02:51:30;;;;;;;6.53;2.35;;;13.50;99.90;;;;;;4995130;28;20038;-54
2023/07/18 02:53:56;;;;;;;4.75;2.22;;;13.60;99.90;;;;;;4995183;28;20144;-56
2023/07/18 02:56:21;;;;;;;4.65;2.33;;;13.60;99.90;;;;;;5012580;28;20037;-55
2023/07/18 02:58:48;;;;;;;5.32;2.40;;;13.60;99.90;;;;;;4995299;28;20022;-58
2023/07/18 03:01:14;;;;;;;6.53;2.45;;;13.60;99.90;;;;;;4995005;28;20378;-57
2023/07/18 03:03:40;;;;;;;4.88;2.22;;;13.60;99.90;;;;;;5012407;28;20030;-58
2023/07/18 03:06:07;;;;;;;5.93;2.30;;;13.60;99.90;;;;;;4994805;28;20084;-59
2023/07/18 03:08:33;;;;;;;5.80;2.55;;;13.60;99.90;;;;;;4994868;28;20033;-58
2023/07/18 03:11:03;;;;;;;5.78;2.40;;;13.60;99.90;;;;;;4994592;28;20034;-54
2023/07/18 03:13:29;;;;;;;4.47;2.42;;;13.60;99.90;;;;;;4992906;28;20033;-57
2023/07/18 03:15:55;;;;;;;4.13;1.85;;;13.60;99.90;;;;;;4982040;28;20035;-59
2023/07/18 03:18:21;;;;;;;3.97;1.95;;;13.60;99.90;;;;;;4973036;28;20504;-59
2023/07/18 03:20:47;;;;;;;6.05;2.30;;;13.60;99.90;;;;;;4982040;28;20140;-57
2023/07/18 03:23:13;;;;;;;5.43;2.35;;;13.60;99.90;;;;;;4998191;28;20118;-56
2023/07/18 03:25:38;;;;;;;7.15;2.28;;;13.50;99.90;;;;;;4987179;28;20033;-59
2023/07/18 03:28:04;;;;;;;7.35;2.45;;;13.50;99.90;;;;;;5000128;28;20467;-55
2023/07/18 03:30:33;;;;;;;5.75;2.20;;;13.50;99.90;;;;;;4978940;28;20030;-58
2023/07/18 03:32:59;;;;;;;6.65;2.40;;;13.50;99.90;;;;;;4982495;28;20037;-57
2023/07/18 03:35:26;;;;;;;3.65;2.25;;;13.40;99.90;;;;;;5001666;28;20100;-58
2023/07/18 03:37:52;;;;;;;4.57;2.00;;;13.40;99.90;;;;;;4979665;28;20445;-55
2023/07/18 03:40:17;;;;;;;6.72;2.80;;;13.40;99.90;;;;;;4980696;28;20026;-58
2023/07/18 03:42:44;;;;;;;8.10;2.55;;;13.40;99.90;;;;;;5000251;28;20022;-59
2023/07/18 03:45:12;;;;;;;5.53;2.65;;;13.40;99.90;;;;;;4997751;28;20109;-56
2023/07/18 03:47:39;;;;;;;4.00;2.07;;;13.40;99.90;;;;;;4998689;28;20169;-55
2023/07/18 03:50:05;;;;;;;5.85;2.33;;;13.40;99.90;;;;;;5000080;28;20042;-58
2023/07/18 03:52:31;;;;;;;4.68;2.30;;;13.40;99.90;;;;;;5000963;28;20029;-59
2023/07/18 03:54:56;;;;;;;5.75;2.03;;;13.40;99.90;;;;;;4997824;28;20031;-58
2023/07/18 03:57:22;;;;;;;7.57;2.45;;;13.40;99.90;;;;;;5009765;28;20045;-59
2023/07/18 03:59:47;;;;;;;5.97;2.42;;;13.40;99.90;;;;;;5010144;28;20026;-59
2023/07/18 04:02:14;;;;;;;5.60;2.42;;;13.40;99.90;;;;;;5008971;28;20126;-59
2023/07/18 04:04:41;;;;;;;6.13;2.30;;;13.40;99.90;;;;;;4984027;28;20109;-57
2023/07/18 04:07:07;;;;;;;5.88;2.60;;;13.40;99.90;;;;;;5001228;28;20473;-59
2023/07/18 04:09:34;;;;;;;5.80;2.25;;;13.40;99.90;;;;;;5010201;28;20144;-57
2023/07/18 04:12:00;;;;;;;5.85;2.10;;;13.40;99.90;;;;;;5009169;28;20103;-57
2023/07/18 04:14:25;;;;;;;4.30;2.45;;;13.40;99.90;;;;;;5009919;28;20038;-53
2023/07/18 04:16:52;;;;;;;4.57;2.20;;;13.30;99.90;;;;;;5001433;28;20036;-55
2023/07/18 04:19:18;;;;;;;8.13;2.53;;;13.30;99.90;;;;;;5006128;28;20019;-55
2023/07/18 04:21:44;;;;;;;4.65;2.30;;;13.30;99.90;;;;;;5005053;28;20060;-58
2023/07/18 04:24:10;;;;;;;4.90;2.30;;;13.30;99.90;;;;;;5009422;28;20059;-57
2023/07/18 04:26:36;;;;;;;6.15;2.53;;;13.30;99.90;;;;;;5009699;28;20125;-54
2023/07/18 04:29:04;;;;;;;7.38;2.70;;;13.30;99.90;;;;;;5007466;28;20129;-56
2023/07/18 04:31:30;;;;;;;4.13;2.17;;;13.40;99.90;;;;;;4995256;28;20126;-55
2023/07/18 04:33:55;;;;;;;3.80;1.92;;;13.40;99.90;;;;;;4999804;28;20126;-56
2023/07/18 04:36:21;;;;;;;3.83;2.03;;;13.50;99.90;;;;;;4994389;28;20022;-55
2023/07/18 04:38:47;;;;;;;5.22;2.15;;;13.50;99.90;;;;;;4995764;28;20018;-58
2023/07/18 04:41:12;;;;;;;5.03;2.15;;;13.50;99.90;;;;;;4992686;28;20030;-56
2023/07/18 04:43:38;;;;;;;5.45;2.65;;;13.50;99.90;;;;;;4972845;28;20065;-59
2023/07/18 04:46:04;;;;;;;6.63;1.95;;;13.60;99.90;;;;;;4992154;28;20174;-53
2023/07/18 04:48:30;;;;;;;5.57;2.45;;;13.60;99.90;;;;;;4998575;28;20041;-58
2023/07/18 04:50:59;;;;;;;5.97;2.35;;;13.60;99.90;;;;;;4995175;28;20030;-58
2023/07/18 04:53:29;;;;;;;5.10;2.53;;;13.60;99.90;;;;;;5008116;28;20048;-58
2023/07/18 04:55:55;;;;;;;5.03;2.42;;;13.70;99.90;;;;;;4998143;28;20038;-58
2023/07/18 04:58:26;;;;;;;4.38;2.00;;;13.70;99.90;;;;;;4996363;28;20113;-58
2023/07/18 05:00:53;;;;;;;5.35;2.35;;;13.70;99.90;;;;;;4988886;28;20031;-56
2023/07/18 05:03:19;;;;;;;6.30;2.03;;;13.80;99.90;;;;;;4996371;28;20022;-57
2023/07/18 05:05:45;;;;;;;5.22;2.42;;;13.80;99.90;;;;;;4995547;28;20569;-56
2023/07/18 05:08:11;;;;;;;5.45;2.13;;;13.80;99.90;;;;;;5006892;28;20482;-57
2023/07/18 05:10:36;;;;;;;6.32;2.63;;;13.90;99.90;;;;;;5001911;28;20050;-57
2023/07/18 05:13:02;;;;;;;7.00;2.38;;;13.90;99.90;;;;;;4995837;28;20483;-57
2023/07/18 05:15:27;;;;;;;4.80;2.20;;;14.00;99.90;;;;;;4992978;28;20034;-56
2023/07/18 05:17:53;;;;;;;4.32;2.15;;;14.10;99.90;;;;;;5000372;28;20033;-58
2023/07/18 05:20:19;;;;;;;4.38;2.13;;;14.10;99.90;;;;;;4999943;28;20044;-57
2023/07/18 05:22:45;;;;;;;5.32;2.38;;;14.20;99.90;;;;;;5006818;28;20097;-56
2023/07/18 05:25:12;;;;;;;10.43;4.05;;;14.30;99.90;;;;;;5006334;28;20026;-57
2023/07/18 05:27:39;;;;;;;6.20;2.40;;;14.40;99.90;;;;;;4994233;28;20305;-58
2023/07/18 05:30:10;;;;;;;8.95;2.42;;;14.40;99.90;;;;;;4997220;28;20029;-58
2023/07/18 05:32:35;;;;;;;4.47;2.05;;;14.40;99.90;;;;;;5006113;28;20030;-56
2023/07/18 05:35:01;;;;;;;6.47;2.15;;;14.60;99.90;;;;;;4997770;28;20402;-55
2023/07/18 05:37:29;;;;;;;6.80;3.05;;;14.70;99.90;;;;;;4993658;28;20029;-55
2023/07/18 05:39:55;;;;;;;6.15;2.90;;;14.70;99.90;;;;;;4991575;28;20088;-56
2023/07/18 05:42:21;;;;;;;4.47;2.20;;;14.80;99.90;;;;;;4974502;28;20026;-58
2023/07/18 05:44:47;;;;;;;7.13;2.70;;;14.90;99.90;;;;;;5000169;28;20037;-59
2023/07/18 05:47:13;;;;;;;4.57;2.40;;;15.00;99.90;;;;;;4988098;28;20025;-58
2023/07/18 05:49:39;;;;;;;5.88;2.10;;;15.10;99.90;;;;;;4995930;28;20386;-56
2023/07/18 05:52:05;;;;;;;5.53;2.33;;;15.20;99.90;;;;;;5004622;28;20040;-55
2023/07/18 05:54:30;;;;;;;5.97;2.30;;;15.30;99.90;;;;;;5001433;28;20040;-56
2023/07/18 05:57:00;;;;;;;5.28;2.65;;;15.40;99.90;;;;;;4998714;28;20038;-57
2023/07/18 05:59:27;;;;;;;7.18;2.58;;;15.60;99.90;;;;;;5004083;28;20029;-58
2023/07/18 06:01:52;;;;;;;9.63;4.03;;;15.60;99.90;;;;;;4998036;28;20030;-58
2023/07/18 06:04:18;;;;;;;7.82;3.28;;;15.80;99.90;;;;;;5003227;28;20121;-58
2023/07/18 06:06:44;;;;;;;7.22;2.50;;;15.80;99.90;;;;;;5010002;28;20029;-58
2023/07/18 06:09:10;;;;;;;8.65;2.25;;;16.00;99.90;;;;;;5000245;28;20121;-57
2023/07/18 06:11:37;;;;;;;6.55;2.90;;;16.10;99.90;;;;;;5004676;28;20121;-56
2023/07/18 06:14:05;;;;;;;6.85;2.40;;;16.10;99.90;;;;;;5000118;28;20038;-57
2023/07/18 06:16:31;;;;;;;4.60;2.23;;;16.20;99.90;;;;;;4991578;28;20041;-55
2023/07/18 06:18:56;;;;;;;4.68;2.22;;;16.30;99.90;;;;;;5006276;28;20449;-53
2023/07/18 06:21:26;;;;;;;3.85;2.00;;;16.40;99.90;;;;;;4993006;28;20030;-58
2023/07/18 06:23:55;;;;;;;7.63;1.98;;;16.40;99.90;;;;;;4989273;28;20037;-55
2023/07/18 06:26:22;;;;;;;5.97;2.42;;;16.50;99.90;;;;;;4994838;28;20401;-57
2023/07/18 06:28:48;;;;;;;9.48;2.30;;;16.60;99.90;;;;;;5009548;28;20041;-57
2023/07/18 06:31:14;;;;;;;7.32;2.03;;;16.60;99.90;;;;;;5000054;28;20346;-56
2023/07/18 06:33:40;;;;;;;4.80;2.08;;;16.80;99.90;;;;;;5004583;28;20038;-59
2023/07/18 06:36:06;;;;;;;6.20;2.35;;;16.80;99.90;;;;;;4993318;28;20035;-55
2023/07/18 06:38:32;;;;;;;3.97;2.03;;;16.90;99.90;;;;;;5005139;28;20506;-57
2023/07/18 06:40:57;;;;;;;4.90;2.00;;;16.90;99.90;;;;;;4993109;28;20062;-55
2023/07/18 06:43:24;;;;;;;5.85;1.95;;;16.90;99.90;;;;;;5006075;28;20022;-56
2023/07/18 06:45:50;;;;;;;4.85;2.80;;;17.10;99.90;;;;;;4999332;28;20034;-59
2023/07/18 06:48:17;;;;;;;5.20;2.33;;;17.20;99.90;;;;;;4982179;28;20109;-58
2023/07/18 06:50:46;;;;;;;7.00;2.25;;;17.30;99.90;;;;;;5006232;28;20061;-59
2023/07/18 06:53:12;;;;;;;;;;;17.40;99.90;;;;;;5007963;28;20018;-58
2023/07/18 06:55:37;;;;;;;4.32;1.90;;;17.50;99.90;;;;;;4996940;28;20097;-58
2023/07/18 06:58:03;;;;;;;6.28;1.90;;;17.50;99.90;;;;;;4984938;28;20034;-59
2023/07/18 07:00:29;;;;;;;5.13;1.85;;;17.60;99.90;;;;;;4997051;28;20502;-57
2023/07/18 07:02:55;;;;;;;5.80;2.25;;;17.70;99.90;;;;;;5006755;28;20485;-58
2023/07/18 07:05:20;;;;;;;6.28;1.88;;;17.80;99.90;;;;;;5002566;28;20037;-58
2023/07/18 07:07:49;;;;;;;3.90;1.60;;;18.00;99.90;;;;;;5001731;28;20034;-57
2023/07/18 07:10:15;;;;;;;6.35;1.73;;;18.00;99.90;;;;;;4995788;28;20046;-58
2023/07/18 07:12:41;;;;;;;7.55;2.88;;;18.00;99.90;;;;;;5003030;28;20030;-58
2023/07/18 07:15:07;;;;;;;4.13;1.65;;;18.10;99.90;;;;;;5007353;28;20040;-58
2023/07/18 07:17:32;;;;;;;6.00;2.25;;;18.10;99.90;;;;;;5001288;28;20105;-56
2023/07/18 07:19:58;;;;;;;17.50;8.93;;;18.30;99.90;;;;;;5007657;28;20553;-58
2023/07/18 07:22:23;;;;;;;7.68;2.95;;;18.40;99.90;;;;;;4992509;28;20326;-56
2023/07/18 07:24:49;;;;;;;5.45;1.80;;;18.40;99.90;;;;;;4999100;28;20145;-59
2023/07/18 07:27:15;;;;;;;4.70;1.95;;;18.50;99.90;;;;;;4981811;28;20530;-59
2023/07/18 07:29:40;;;;;;;3.55;1.48;;;18.50;99.90;;;;;;5004360;28;20025;-59
2023/07/18 07:32:06;;;;;;;4.20;1.60;;;18.60;99.90;;;;;;5008771;28;20076;-57
2023/07/18 07:34:32;;;;;;;3.45;1.30;;;18.80;99.90;;;;;;5004155;28;20103;-56
2023/07/18 07:36:58;;;;;;;3.55;1.63;;;19.00;99.90;;;;;;4993131;28;20086;-59
2023/07/18 07:39:24;;;;;;;5.03;1.80;;;19.10;99.90;;;;;;4998348;28;20033;-59
2023/07/18 07:41:49;;;;;;;4.53;1.67;;;19.30;99.90;;;;;;4999290;28;20030;-59
2023/07/18 07:44:15;;;;;;;6.28;1.95;;;19.40;99.90;;;;;;4995142;28;20053;-58
2023/07/18 07:46:40;;;;;;;5.85;2.17;;;19.50;99.90;;;;;;5001499;28;20068;-56
2023/07/18 07:49:06;;;;;;;5.78;2.42;;;19.50;99.90;;;;;;5001600;28;20133;-58
2023/07/18 07:51:33;;;;;;;5.78;1.73;;;19.60;99.90;;;;;;4997432;28;20114;-58
2023/07/18 07:53:59;;;;;;;5.03;1.67;;;19.60;99.90;;;;;;4991681;28;20783;-59
2023/07/18 07:56:24;;;;;;;4.70;1.42;;;19.70;99.90;;;;;;4991826;28;20114;-59
2023/07/18 07:58:50;;;;;;;6.65;1.73;;;19.70;99.90;;;;;;5004653;28;20212;-58
2023/07/18 08:01:16;;;;;;;5.00;1.60;;;19.70;99.90;;;;;;5000155;28;20030;-58
2023/07/18 08:03:41;;;;;;;4.78;1.38;;;19.70;99.90;;;;;;4998086;28;20080;-58
2023/07/18 08:06:07;;;;;;;3.40;1.20;;;19.70;99.90;;;;;;4993978;28;20035;-53
2023/07/18 08:08:33;;;;;;;6.70;1.70;;;19.70;99.90;;;;;;4991858;28;20033;-58
2023/07/18 08:10:58;;;;;;;3.63;1.35;;;19.80;99.90;;;;;;5007790;28;20068;-59
2023/07/18 08:13:25;;;;;;;3.63;1.95;;;20.00;99.90;;;;;;4990493;28;20064;-59
2023/07/18 08:15:51;;;;;;;3.22;1.33;;;20.10;99.90;;;;;;4990902;28;20470;-59
2023/07/18 08:18:16;;;;;;;3.80;1.52;;;20.10;99.90;;;;;;5000779;28;20283;-57
2023/07/18 08:20:42;;;;;;;7.50;2.33;;;20.20;99.90;;;;;;5000515;28;20040;-58
2023/07/18 08:23:08;;;;;;;5.55;2.75;;;20.20;99.90;;;;;;4991838;28;20030;-58
2023/07/18 08:25:34;;;;;;;3.50;1.40;;;20.30;99.90;;;;;;5003435;28;20033;-58
2023/07/18 08:27:59;;;;;;;3.47;1.20;;;20.40;99.90;;;;;;5001232;28;20108;-55
2023/07/18 08:30:25;;;;;;;3.78;1.75;;;20.50;99.90;;;;;;5001741;28;20030;-57
2023/07/18 08:32:50;;;;;;;5.18;1.20;;;20.50;99.90;;;;;;4993434;28;20030;-58
2023/07/18 08:35:16;;;;;;;2.90;0.90;;;20.50;99.40;;;;;;5000577;28;20417;-59
2023/07/18 08:37:42;;;;;;;2.38;1.25;;;20.50;99.70;;;;;;5008049;28;20041;-59
2023/07/18 08:40:09;;;;;;;4.00;1.10;;;20.60;99.10;;;;;;4998075;28;20115;-56
2023/07/18 08:42:37;;;;;;;2.33;1.20;;;20.60;98.20;;;;;;4997277;28;20085;-58
2023/07/18 08:45:03;;;;;;;4.68;1.20;;;20.70;98.90;;;;;;4991028;28;20037;-58
2023/07/18 08:47:29;;;;;;;4.53;1.33;;;20.70;98.60;;;;;;5003209;28;20065;-57
2023/07/18 08:49:55;;;;;;;9.50;1.98;;;20.90;98.30;;;;;;4999647;28;20034;-56
2023/07/18 08:52:21;;;;;;;2.85;1.10;;;21.00;98.40;;;;;;4997420;28;20037;-57
2023/07/18 08:54:47;;;;;;;2.75;0.90;;;21.10;98.00;;;;;;4997422;28;20066;-56
2023/07/18 08:57:13;;;;;;;1.73;0.90;;;21.20;97.50;;;;;;4997129;28;20034;-58
2023/07/18 08:59:39;;;;;;;5.47;1.17;;;21.30;97.80;;;;;;5003366;28;20056;-58
2023/07/18 09:02:05;;;;;;;4.60;1.20;;;21.30;96.60;;;;;;4994612;28;20162;-57
2023/07/18 09:04:31;;;;;;;9.13;1.67;;;21.40;97.20;;;;;;5003526;28;20449;-55
2023/07/18 09:06:58;;;;;;;6.90;2.15;;;21.50;96.90;;;;;;4997378;28;20070;-59
2023/07/18 09:09:25;;;;;;;4.65;1.80;;;21.50;96.60;;;;;;5000981;28;20427;-58
2023/07/18 09:11:57;;;;;;;5.30;1.95;;;21.60;96.40;;;;;;4999327;28;20445;-58
2023/07/18 09:14:27;;;;;;;5.57;1.92;;;21.70;95.70;;;;;;4989250;28;20081;-56
2023/07/18 09:16:54;;;;;;;5.47;1.92;;;21.80;96.10;;;;;;5004398;28;20045;-55
2023/07/18 09:19:39;;;;;;;6.15;1.70;;;21.90;95.30;;;;;;4993252;28;20037;-55
2023/07/18 09:22:06;;;;;;;6.43;1.75;;;21.90;94.90;;;;;;5005267;28;20505;-59
2023/07/18 09:24:35;;;;;;;5.07;1.50;;;22.00;95.10;;;;;;5001814;28;20034;-57
2023/07/18 09:27:21;;;;;;;5.68;1.60;;;21.90;94.70;;;;;;4997599;28;20061;-57
2023/07/18 09:29:48;;;;;;;7.03;1.30;;;21.90;94.40;;;;;;4990444;28;20050;-55
2023/07/18 09:32:16;;;;;;;5.35;1.20;;;22.00;94.60;;;;;;4996743;28;20030;-58
2023/07/18 09:34:58;;;;;;;3.22;1.17;;;22.00;93.20;;;;;;4989858;28;20479;-57
2023/07/18 09:37:24;;;;;;;4.90;1.75;;;22.00;93.40;;;;;;4995783;28;20026;-59
2023/07/18 09:39:50;;;;;;;5.82;2.00;;;22.10;93.80;;;;;;4996087;28;20510;-59
2023/07/18 09:42:19;;;;;;;5.30;1.88;;;22.10;93.60;;;;;;4994925;28;20332;-58
2023/07/18 09:44:48;;;;;;;6.07;1.80;;;22.20;93.70;;;;;;4999529;28;20164;-59
2023/07/18 09:47:14;;;;;;;4.15;1.52;;;22.30;93.70;;;;;;5002054;28;20076;-57
2023/07/18 09:49:42;;;;;;;8.25;1.55;;;22.40;93.70;;;;;;4997077;28;20469;-58
2023/07/18 09:52:09;;;;;;;4.45;1.20;;;22.70;93.60;;;;;;5003192;28;20026;-56
2023/07/18 09:54:35;;;;;;;2.53;1.10;;;22.80;93.50;;;;;;5004547;28;20025;-58
2023/07/18 09:57:05;;;;;;;5.65;1.52;;;22.80;92.40;;;;;;5005228;28;20397;-58
2023/07/18 09:59:31;;;;;;;2.72;1.05;;;22.80;92.80;;;;;;5007938;28;20042;-59
2023/07/18 10:01:57;;;;;;;3.72;1.00;;;22.80;92.20;;;;;;4995571;28;20033;-59
2023/07/18 10:04:23;;;;;;;2.33;1.02;;;22.80;92.00;;;;;;5000759;28;20475;-59
2023/07/18 10:06:51;;;;;;;2.95;0.90;;;22.90;92.60;;;;;;4993750;28;20230;-58
2023/07/18 10:09:18;;;;;;;4.57;1.23;;;23.00;92.20;;;;;;5001665;28;20037;-57
2023/07/18 10:11:59;;;;;;;3.90;1.38;;;23.10;91.40;;;;;;4996938;28;20405;-56
2023/07/18 10:14:28;;;;;;;3.00;1.05;;;23.20;91.70;;;;;;4999734;28;20030;-57
2023/07/18 10:16:55;;;;;;;6.75;1.40;;;23.00;90.90;;;;;;4999650;28;20049;-57
2023/07/18 10:19:25;;;;;;;4.15;1.63;;;22.90;91.00;;;;;;4991537;28;20054;-57
2023/07/18 10:21:52;;;;;;;2.05;1.05;;;22.70;90.80;;;;;;4993769;28;20103;-59
2023/07/18 10:24:24;;;;;;;4.47;1.20;;;22.60;91.80;;;;;;5000251;28;20018;-59
2023/07/18 10:26:57;;;;;;;4.47;1.20;;;22.50;91.70;;;;;;4999608;28;20502;-57
2023/07/18 10:29:23;;;;;;;6.07;1.60;;;22.50;92.10;;;;;;5002566;28;20445;-59
2023/07/18 10:31:49;;;;;;;5.93;1.40;;;22.50;92.10;;;;;;4994699;28;20330;-59
2023/07/18 10:34:16;;;;;;;2.90;1.30;;;22.40;92.40;;;;;;4982899;28;20121;-57
2023/07/18 10:36:56;;;;;;;3.38;1.75;;;22.30;92.90;;;;;;5006726;28;20042;-58
2023/07/18 10:39:37;;;;;;;3.13;1.10;;;22.30;93.30;;;;;;4994937;28;20037;-59
2023/07/18 10:42:20;;;;;;;2.95;0.90;;;22.30;93.80;;;;;;4995082;28;20034;-58
2023/07/18 10:44:53;;;;;;;3.65;1.05;;;22.40;94.30;;;;;;4999874;28;20109;-58
2023/07/18 10:47:19;;;;;;;2.00;0.90;;;22.30;93.70;;;;;;5006153;28;20030;-55
2023/07/18 10:49:47;;;;;;;1.75;0.95;;;22.40;93.00;;;;;;4999661;28;20634;-56
2023/07/18 10:52:13;;;;;;;2.97;0.98;;;22.50;91.80;;;;;;5009484;28;20065;-57
2023/07/18 10:54:54;;;;;;;2.15;1.13;;;22.50;91.70;;;;;;5007547;28;20037;-59
2023/07/18 10:57:25;;;;;;;1.75;0.90;;;22.50;91.40;;;;;;5000417;28;20022;-57
2023/07/18 10:59:51;;;;;;;1.48;0.70;;;22.50;91.10;;;;;;5003417;28;20034;-58
2023/07/18 11:02:19;;;;;;;3.80;0.90;;;22.60;91.20;;;;;;5001159;28;20037;-59
2023/07/18 11:04:46;;;;;;;2.35;0.77;;;22.50;91.70;;;;;;5009742;28;20103;-55
2023/07/18 11:07:11;;;;;;;2.40;1.02;;;22.50;92.30;;;;;;5009315;28;20110;-56
2023/07/18 11:09:37;;;;;;;1.65;0.75;;;22.50;92.10;;;;;;5010261;28;20123;-52
2023/07/18 11:12:04;;;;;;;2.90;1.10;;;22.60;92.80;;;;;;5001055;28;20045;-59
2023/07/18 11:14:41;;;;;;;3.08;0.93;;;22.60;91.60;;;;;;4998093;28;20530;-58
2023/07/18 11:17:16;;;;;;;2.78;0.95;;;22.80;91.20;;;;;;4999659;28;20032;-58
2023/07/18 11:19:43;;;;;;;1.83;0.85;;;22.90;91.40;;;;;;4992918;28;20441;-57
2023/07/18 11:22:10;;;;;;;2.17;0.77;;;22.80;91.30;;;;;;5000709;28;20104;-55
2023/07/18 11:24:36;;;;;;;2.13;0.65;;;22.90;91.90;;;;;;5005375;28;20034;-57
2023/07/18 11:27:21;;;;;;;2.35;0.82;;;22.90;92.30;;;;;;4995435;28;20487;-59
2023/07/18 11:30:08;;;;;;;3.78;1.10;;;22.80;91.00;;;;;;5000081;28;20046;-60
2023/07/18 11:32:39;;;;;;;2.17;0.90;;;22.90;91.60;;;;;;4990883;28;20034;-60
2023/07/18 11:35:08;;;;;;;1.65;0.85;;;22.90;92.90;;;;;;4999525;28;20038;-61
2023/07/18 11:37:35;;;;;;;1.75;1.00;;;22.90;91.60;;;;;;4991951;28;20080;-61
2023/07/18 11:40:00;;;;;;;2.78;1.27;;;22.90;91.80;;;;;;4994380;28;20064;-59
2023/07/18 11:42:49;;;;;;;2.70;1.13;;;22.80;92.50;;;;;;5005188;28;20065;-59
2023/07/18 11:45:20;;;;;;;3.50;1.35;;;22.80;91.60;;;;;;4983313;28;20124;-60
2023/07/18 11:47:57;;;;;;;3.95;1.30;;;23.00;90.90;;;;;;5008473;28;20493;-60
2023/07/18 11:50:26;;;;;;;4.32;1.02;;;23.00;90.80;;;;;;4995163;28;20393;-60
2023/07/18 11:52:53;;;;;;;4.60;1.48;;;22.90;91.10;;;;;;5007526;28;20465;-60
2023/07/18 11:55:21;;;;;;;3.60;1.30;;;23.00;90.90;;;;;;5007104;28;20030;-60
2023/07/18 11:57:50;;;;;;;3.57;1.57;;;23.10;90.40;;;;;;5002386;28;20073;-61
2023/07/18 12:00:17;;;;;;;4.15;1.35;;;23.10;90.80;;;;;;5008252;28;20093;-60
2023/07/18 12:02:44;;;;;;;4.13;1.50;;;23.30;90.30;;;;;;5002312;28;20030;-60
2023/07/18 12:05:11;;;;;;;3.50;1.10;;;23.40;90.70;;;;;;4992318;28;20437;-60
2023/07/18 12:07:37;;;;;;;2.83;0.90;;;23.50;90.50;;;;;;4998413;28;20025;-58
2023/07/18 12:10:07;;;;;;;2.35;0.90;;;23.60;90.40;;;;;;5008074;28;20030;-58
2023/07/18 12:12:33;;;;;;;3.00;1.25;;;23.60;90.30;;;;;;4991576;28;20031;-56
2023/07/18 12:15:00;;;;;;;3.65;1.08;;;23.70;89.30;;;;;;4992814;28;20034;-57
2023/07/18 12:17:26;;;;;;;2.83;1.13;;;23.70;88.80;;;;;;5001711;28;20038;-57
2023/07/18 12:19:52;;;;;;;4.30;1.33;;;23.70;86.60;;;;;;5007897;28;20128;-59
2023/07/18 12:22:18;;;;;;;4.20;1.50;;;23.70;87.70;;;;;;4990129;28;20339;-59
2023/07/18 12:24:44;;;;;;;3.70;1.10;;;23.70;88.10;;;;;;4990690;28;20034;-59
2023/07/18 12:27:12;;;;;;;3.10;1.00;;;23.60;88.10;;;;;;4988810;28;20117;-59
2023/07/18 12:29:38;;;;;;;2.97;1.13;;;23.60;89.40;;;;;;4979448;28;20030;-60
2023/07/18 12:32:04;;;;;;;4.70;1.00;;;23.60;90.60;;;;;;4999096;28;20401;-60
2023/07/18 12:34:30;;;;;;;3.78;1.05;;;23.60;90.40;;;;;;4995718;28;20053;-59
2023/07/18 12:36:56;;;;;;;2.78;1.23;;;23.80;86.10;;;;;;4994310;28;20034;-60
2023/07/18 12:39:22;;;;;;;2.85;1.08;;;24.00;84.70;;;;;;5001308;28;20109;-59
2023/07/18 12:41:49;;;;;;;2.03;0.90;;;24.10;84.80;;;;;;5001395;28;20335;-58
2023/07/18 12:44:20;;;;;;;1.45;0.80;;;24.30;85.20;;;;;;5001476;28;20031;-59
2023/07/18 12:46:49;;;;;;;3.03;1.20;;;24.40;84.60;;;;;;4993736;28;20042;-60